createdAt,value
2023-02-04T00:02:49.553Z,6.00
2023-02-04T00:06:51.466Z,5.60
2023-02-04T00:10:53.218Z,5.40
2023-02-04T00:14:54.993Z,5.30
2023-02-04T00:18:56.827Z,5.20
2023-02-04T00:22:58.664Z,5.10
2023-02-04T00:27:00.608Z,5.00
2023-02-04T00:31:02.616Z,5.00
2023-02-04T00:35:04.831Z,5.00
2023-02-04T00:39:06.591Z,4.90
2023-02-04T00:43:08.513Z,4.80
2023-02-04T00:47:10.307Z,4.80
2023-02-04T00:51:12.157Z,4.70
2023-02-04T00:55:15.752Z,4.50
2023-02-04T00:59:17.507Z,4.40
2023-02-04T01:03:19.411Z,4.30
2023-02-04T01:07:21.244Z,4.20
2023-02-04T01:11:23.159Z,4.20
2023-02-04T01:15:24.954Z,4.40
2023-02-04T01:19:26.776Z,4.30
2023-02-04T01:23:28.565Z,4.30
2023-02-04T01:27:30.465Z,4.30
2023-02-04T01:31:34.040Z,4.30
2023-02-04T01:35:35.927Z,4.40
2023-02-04T01:39:37.773Z,4.40
2023-02-04T01:43:39.753Z,4.30
2023-02-04T01:47:41.626Z,4.40
2023-02-04T01:51:43.515Z,4.20
2023-02-04T01:55:45.338Z,4.10
2023-02-04T01:59:47.677Z,4.10
2023-02-04T02:03:49.449Z,4.10
2023-02-04T02:07:53.337Z,3.90
2023-02-04T02:11:55.091Z,3.90
2023-02-04T02:15:56.980Z,3.90
2023-02-04T02:19:59.054Z,3.90
2023-02-04T02:24:03.929Z,3.90
2023-02-04T02:28:19.363Z,4.00
2023-02-04T02:32:21.168Z,4.10
2023-02-04T02:47:34.442Z,4.00
2023-02-04T02:51:36.262Z,3.90
2023-02-04T02:55:38.060Z,3.70
2023-02-04T02:59:39.836Z,3.60
2023-02-04T03:03:59.944Z,3.60
2023-02-04T03:08:01.760Z,3.50
2023-02-04T03:12:06.654Z,3.50
2023-02-04T03:16:08.561Z,3.50
2023-02-04T03:20:10.941Z,3.50
2023-02-04T03:24:12.775Z,3.60
2023-02-04T03:28:14.774Z,3.60
2023-02-04T03:32:16.723Z,3.60
2023-02-04T03:36:18.626Z,3.70
2023-02-04T03:40:20.509Z,3.60
2023-02-04T03:44:26.900Z,3.60
2023-02-04T03:48:28.757Z,3.50
2023-02-04T03:52:38.167Z,3.40
2023-02-04T03:56:40.041Z,3.30
2023-02-04T04:00:41.815Z,3.20
2023-02-04T04:04:43.667Z,3.10
2023-02-04T04:08:45.430Z,3.10
2023-02-04T04:12:47.327Z,3.00
2023-02-04T04:16:49.154Z,2.90
2023-02-04T04:20:51.119Z,2.80
2023-02-04T04:24:52.993Z,2.90
2023-02-04T04:28:54.901Z,3.00
2023-02-04T04:32:56.708Z,3.00
2023-02-04T04:36:58.506Z,3.10
2023-02-04T04:41:00.445Z,3.20
2023-02-04T04:45:03.026Z,3.30
2023-02-04T04:49:05.123Z,3.30
2023-02-04T04:53:11.115Z,3.20
2023-02-04T04:57:13.022Z,3.30
2023-02-04T05:01:14.969Z,3.30
2023-02-04T05:05:17.007Z,3.20
2023-02-04T05:09:18.800Z,3.20
2023-02-04T05:13:20.545Z,3.10
2023-02-04T05:17:22.350Z,3.10
2023-02-04T05:21:24.315Z,3.00
2023-02-04T05:25:26.354Z,3.00
2023-02-04T05:29:30.493Z,2.90
2023-02-04T05:33:32.436Z,2.90
2023-02-04T05:37:36.604Z,2.80
2023-02-04T05:41:39.698Z,2.70
2023-02-04T05:45:41.948Z,2.60
2023-02-04T05:49:43.954Z,2.50
2023-02-04T05:53:45.780Z,2.50
2023-02-04T05:57:47.630Z,2.40
2023-02-04T06:01:49.723Z,2.30
2023-02-04T06:05:51.482Z,2.30
2023-02-04T06:09:53.273Z,2.20
2023-02-04T06:13:55.650Z,2.10
2023-02-04T06:17:58.785Z,2.10
2023-02-04T06:22:00.788Z,2.00
2023-02-04T06:26:03.101Z,2.00
2023-02-04T06:30:05.493Z,2.00
2023-02-04T06:34:10.300Z,1.90
2023-02-04T06:38:13.376Z,1.80
2023-02-04T06:42:17.781Z,1.80
2023-02-04T06:46:19.627Z,1.80
2023-02-04T06:50:21.580Z,1.70
2023-02-04T06:54:25.655Z,1.70
2023-02-04T06:58:27.593Z,1.70
2023-02-04T07:02:35.326Z,1.70
2023-02-04T07:06:37.298Z,1.70
2023-02-04T07:10:39.230Z,1.70
2023-02-04T07:14:41.093Z,1.70
2023-02-04T07:18:43.043Z,1.70
2023-02-04T07:22:45.224Z,1.70
2023-02-04T07:26:47.457Z,1.90
2023-02-04T07:30:50.113Z,2.10
2023-02-04T07:34:55.072Z,2.50
2023-02-04T07:38:59.841Z,3.00
2023-02-04T13:00:07.110Z,5.10
2023-02-04T15:02:30.878Z,5.80
2023-02-04T15:06:32.887Z,5.70
2023-02-04T15:10:34.949Z,5.60
2023-02-04T15:14:37.303Z,5.70
2023-02-04T15:18:39.387Z,5.40
2023-02-04T15:22:41.192Z,5.30
2023-02-04T15:37:02.737Z,5.00
2023-02-04T15:41:13.557Z,5.00
2023-02-04T15:45:34.418Z,4.80
2023-02-04T15:49:45.603Z,4.70
2023-02-04T15:54:11.660Z,4.60
2023-02-04T16:02:35.131Z,4.30
2023-02-04T16:06:37.380Z,4.20
2023-02-04T16:10:39.473Z,4.00
2023-02-04T16:14:47.589Z,3.80
2023-02-04T16:18:50.187Z,3.70
2023-02-04T16:23:07.369Z,3.50
2023-02-04T16:27:09.554Z,3.40
2023-02-04T16:31:12.411Z,3.30
2023-02-04T16:35:14.822Z,3.30
2023-02-04T16:39:17.124Z,3.20
2023-02-04T16:43:22.497Z,3.20
2023-02-04T16:47:24.361Z,3.10
2023-02-04T16:51:37.186Z,3.10
2023-02-04T16:55:44.363Z,3.00
2023-02-04T17:00:45.923Z,2.80
2023-02-04T17:04:48.986Z,2.80
2023-02-04T17:09:01.754Z,2.70
2023-02-04T17:13:03.725Z,2.60
2023-02-04T17:17:09.172Z,2.60
2023-02-04T17:21:11.353Z,2.50
2023-02-04T17:25:13.446Z,2.50
2023-02-04T17:29:19.262Z,2.50
2023-02-04T17:33:21.379Z,2.40
2023-02-04T17:37:26.180Z,2.40
2023-02-04T17:41:31.047Z,2.40
2023-02-04T17:45:33.750Z,2.30
2023-02-04T17:49:37.842Z,2.30
2023-02-04T17:53:41.828Z,2.30
2023-02-04T17:57:44.989Z,2.40
2023-02-04T18:01:47.233Z,2.30
2023-02-04T18:05:54.651Z,2.30
2023-02-04T18:10:17.223Z,2.30
2023-02-04T18:14:30.383Z,2.30
2023-02-04T18:18:39.166Z,2.20
2023-02-04T18:22:41.078Z,2.20
2023-02-04T18:26:51.648Z,2.10
2023-02-04T18:30:54.652Z,2.10
2023-02-04T18:35:04.052Z,2.10
2023-02-04T18:39:28.433Z,2.20
2023-02-04T18:43:36.123Z,2.20
2023-02-04T18:47:54.087Z,2.30
2023-02-04T18:52:11.125Z,2.30
2023-02-04T18:56:13.573Z,2.20
2023-02-04T19:00:27.810Z,2.20
2023-02-04T19:04:32.023Z,2.10
2023-02-04T19:08:46.721Z,2.10
2023-02-04T19:12:52.220Z,2.00
2023-02-04T19:17:31.590Z,1.90
2023-02-04T19:21:41.910Z,2.00
2023-02-04T19:25:51.287Z,2.10
2023-02-04T19:30:00.212Z,2.10
2023-02-04T19:34:33.296Z,2.20
2023-02-04T19:38:46.226Z,2.20
2023-02-04T19:42:53.328Z,2.30
2023-02-04T19:46:55.260Z,2.40
2023-02-04T19:50:57.177Z,2.30
2023-02-04T19:55:39.166Z,2.40
2023-02-04T19:59:45.552Z,2.40
2023-02-04T20:04:03.933Z,2.40
2023-02-04T20:08:49.115Z,2.50
2023-02-04T20:13:30.965Z,2.50
2023-02-04T20:17:51.011Z,2.40
2023-02-04T20:22:19.615Z,2.30
2023-02-04T20:26:23.156Z,2.20
2023-02-04T20:30:30.193Z,2.10
2023-02-04T20:34:32.304Z,2.00
2023-02-04T20:38:34.321Z,1.80
2023-02-04T20:43:08.580Z,1.70
2023-02-04T20:47:23.964Z,1.60
2023-02-04T20:51:27.998Z,1.60
2023-02-04T20:55:32.939Z,1.50
2023-02-04T20:59:35.181Z,1.50
2023-02-04T21:03:37.763Z,1.50
2023-02-04T21:07:46.282Z,1.60
2023-02-04T21:11:48.412Z,1.70
2023-02-04T21:15:50.494Z,1.80
2023-02-04T21:19:52.400Z,1.80
2023-02-04T21:23:54.263Z,1.80
2023-02-04T21:27:56.843Z,1.70
2023-02-04T21:31:58.682Z,1.70
2023-02-04T21:36:00.466Z,1.60
2023-02-04T21:40:02.462Z,1.60
2023-02-04T21:44:04.595Z,1.30
2023-02-04T21:48:08.081Z,1.20
2023-02-04T21:52:09.949Z,1.00
2023-02-04T21:56:11.947Z,0.90
2023-02-04T22:00:14.259Z,0.90
2023-02-04T22:04:16.126Z,0.80
2023-02-04T22:08:18.082Z,0.70
2023-02-04T22:12:20.181Z,0.60
2023-02-04T22:16:22.074Z,0.50
2023-02-04T22:20:26.813Z,0.50
2023-02-04T22:24:31.690Z,0.60
2023-02-04T22:28:33.534Z,0.70
2023-02-04T22:32:35.499Z,0.70
2023-02-04T22:36:37.377Z,0.70
2023-02-04T22:40:39.175Z,0.70
2023-02-04T22:44:41.463Z,0.70
2023-02-04T22:48:46.005Z,0.80
2023-02-04T22:52:47.859Z,0.80
2023-02-04T22:57:02.350Z,0.70
2023-02-04T23:01:07.040Z,0.70
2023-02-04T23:05:09.195Z,0.70
2023-02-04T23:09:11.476Z,0.60
2023-02-04T23:13:13.369Z,0.50
2023-02-04T23:17:16.408Z,0.40
2023-02-04T23:21:20.376Z,0.30
2023-02-04T23:25:22.641Z,0.30
2023-02-04T23:29:28.287Z,0.30
2023-02-04T23:33:30.060Z,0.30
2023-02-04T23:37:32.396Z,0.20
2023-02-04T23:41:34.339Z,0.20
2023-02-04T23:45:36.533Z,0.30
2023-02-04T23:49:38.509Z,0.20
2023-02-04T23:53:40.280Z,0.20
2023-02-04T23:57:42.113Z,0.10
